Wetterdaten: Woche 24.11.14 - 30.11.14 (KW48)
Datum Zeit Temp. A. Feuchte A. Luftdruck Regen Wind Richtung Taupunkt Windchill Windben
24.11.2014 00:00 4,9 C 83 % 1026,9 hPa 0,0 l/m 1,6 km/h N 2,2 C 4,9 C 8,9 km/h
24.11.2014 01:00 4,2 C 83 % 1026,7 hPa 0,0 l/m 1,9 km/h N 1,6 C 4,2 C 9,7 km/h
24.11.2014 02:00 3,1 C 85 % 1026,3 hPa 0,0 l/m 3,1 km/h N 0,9 C 3,1 C 11,7 km/h
24.11.2014 03:00 3,2 C 86 % 1026,0 hPa 0,0 l/m 2,3 km/h N 1,1 C 3,2 C 12,5 km/h
24.11.2014 04:00 3,4 C 86 % 1025,8 hPa 0,0 l/m 1,4 km/h N 1,3 C 3,4 C 8,0 km/h
24.11.2014 05:00 3,7 C 86 % 1025,5 hPa 0,0 l/m 1,8 km/h N 1,6 C 3,7 C 9,3 km/h
24.11.2014 06:00 3,8 C 86 % 1025,4 hPa 0,0 l/m 2,3 km/h N 1,7 C 3,8 C 12,9 km/h
24.11.2014 07:00 4,0 C 86 % 1025,4 hPa 0,0 l/m 0,8 km/h N 1,9 C 4,0 C 6,0 km/h
24.11.2014 08:00 4,1 C 86 % 1025,5 hPa 0,0 l/m 0,9 km/h N 1,9 C 4,1 C 6,8 km/h
24.11.2014 09:00 4,1 C 86 % 1025,7 hPa 0,0 l/m 0,9 km/h N 1,9 C 4,1 C 7,2 km/h
24.11.2014 10:00 4,2 C 86 % 1025,7 hPa 0,0 l/m 1,5 km/h N 2,0 C 4,2 C 8,4 km/h
24.11.2014 11:00 4,2 C 86 % 1025,4 hPa 0,0 l/m 1,4 km/h N 2,1 C 4,2 C 8,8 km/h
24.11.2014 12:00 4,1 C 86 % 1025,4 hPa 0,0 l/m 1,8 km/h N 2,0 C 4,1 C 8,8 km/h
24.11.2014 13:00 4,5 C 86 % 1025,2 hPa 0,0 l/m 1,5 km/h N 2,3 C 4,5 C 8,9 km/h
24.11.2014 14:00 4,6 C 86 % 1025,6 hPa 0,3 l/m 1,6 km/h N 2,4 C 4,6 C 8,9 km/h
24.11.2014 15:00 4,4 C 86 % 1025,3 hPa 0,0 l/m 3,1 km/h N 2,2 C 4,4 C 10,5 km/h
24.11.2014 16:00 4,3 C 86 % 1025,7 hPa 0,0 l/m 3,1 km/h N 2,2 C 4,3 C 13,3 km/h
24.11.2014 17:00 4,3 C 86 % 1025,9 hPa 0,0 l/m 1,9 km/h N 2,2 C 4,3 C 10,1 km/h
24.11.2014 18:00 4,4 C 86 % 1025,9 hPa 0,0 l/m 1,7 km/h N 2,3 C 4,4 C 7,6 km/h
24.11.2014 19:00 4,4 C 86 % 1026,1 hPa 0,0 l/m 1,2 km/h N 2,2 C 4,4 C 7,2 km/h
24.11.2014 20:00 4,6 C 85 % 1026,6 hPa 0,0 l/m 0,6 km/h N 2,3 C 4,6 C 6,0 km/h
24.11.2014 21:00 4,6 C 85 % 1027,1 hPa 0,0 l/m 0,1 km/h N 2,3 C 4,6 C 2,0 km/h
24.11.2014 22:00 4,6 C 85 % 1027,2 hPa 0,0 l/m 0,1 km/h N 2,3 C 4,6 C 1,2 km/h
24.11.2014 23:00 4,6 C 86 % 1027,0 hPa 0,0 l/m 0,1 km/h N 2,4 C 4,6 C 0,8 km/h
25.11.2014 00:00 4,6 C 86 % 1027,0 hPa 0,0 l/m 0,0 km/h N 2,4 C 4,6 C 0,0 km/h
25.11.2014 01:00 4,5 C 86 % 1027,3 hPa 0,3 l/m 0,0 km/h N 2,4 C 4,5 C 0,0 km/h
25.11.2014 02:00 4,4 C 86 % 1027,3 hPa 0,3 l/m 0,0 km/h N 2,2 C 4,4 C 0,0 km/h
25.11.2014 03:00 4,2 C 86 % 1027,4 hPa 0,3 l/m 0,0 km/h N 2,0 C 4,2 C 0,4 km/h
25.11.2014 04:00 4,1 C 86 % 1027,4 hPa 0,0 l/m 0,0 km/h N 2,0 C 4,1 C 1,6 km/h
25.11.2014 05:00 4,1 C 85 % 1027,5 hPa 0,0 l/m 0,1 km/h N 1,9 C 4,1 C 1,6 km/h
25.11.2014 06:00 3,9 C 85 % 1027,6 hPa 0,0 l/m 0,4 km/h N 1,6 C 3,9 C 3,6 km/h
25.11.2014 07:00 3,9 C 85 % 1027,8 hPa 0,0 l/m 0,1 km/h N 1,6 C 3,9 C 1,6 km/h
25.11.2014 08:00 4,0 C 85 % 1027,9 hPa 0,0 l/m 0,0 km/h N 1,7 C 4,0 C 0,0 km/h
25.11.2014 09:00 4,1 C 84 % 1027,9 hPa 0,0 l/m 0,1 km/h N 1,7 C 4,1 C 3,2 km/h
25.11.2014 10:00 4,3 C 84 % 1027,9 hPa 0,0 l/m 0,1 km/h N 1,8 C 4,3 C 2,4 km/h
25.11.2014 11:00 4,4 C 84 % 1027,7 hPa 0,0 l/m 0,0 km/h N 1,9 C 4,4 C 0,4 km/h
25.11.2014 12:00 4,6 C 84 % 1027,3 hPa 0,0 l/m 0,1 km/h N 2,1 C 4,6 C 1,6 km/h
25.11.2014 13:00 4,6 C 85 % 1027,0 hPa 0,0 l/m 0,2 km/h N 2,2 C 4,6 C 2,8 km/h
25.11.2014 14:00 4,6 C 85 % 1026,9 hPa 0,0 l/m 0,1 km/h N 2,3 C 4,6 C 2,0 km/h
25.11.2014 15:00 4,4 C 85 % 1027,0 hPa 0,0 l/m 0,0 km/h N 2,2 C 4,4 C 0,8 km/h
25.11.2014 16:00 4,4 C 85 % 1027,2 hPa 0,0 l/m 0,0 km/h N 2,1 C 4,4 C 0,4 km/h
25.11.2014 17:00 4,3 C 85 % 1027,3 hPa 0,0 l/m 0,3 km/h N 2,0 C 4,3 C 3,2 km/h
25.11.2014 18:00 4,2 C 85 % 1027,2 hPa 0,0 l/m 0,5 km/h N 1,9 C 4,2 C 4,0 km/h
25.11.2014 19:00 3,9 C 85 % 1027,0 hPa 0,0 l/m 0,3 km/h N 1,6 C 3,9 C 4,0 km/h
25.11.2014 20:00 3,9 C 85 % 1027,0 hPa 0,0 l/m 0,5 km/h N 1,6 C 3,9 C 4,8 km/h
25.11.2014 21:00 4,0 C 85 % 1026,7 hPa 0,0 l/m 0,1 km/h N 1,7 C 4,0 C 1,6 km/h
25.11.2014 22:00 3,8 C 86 % 1026,5 hPa 0,0 l/m 1,0 km/h N 1,7 C 3,8 C 6,0 km/h
25.11.2014 23:00 3,8 C 86 % 1026,4 hPa 0,0 l/m 0,7 km/h N 1,6 C 3,8 C 4,8 km/h
26.11.2014 00:00 3,7 C 86 % 1026,0 hPa 0,0 l/m 0,4 km/h N 1,6 C 3,7 C 4,0 km/h
26.11.2014 01:00 3,4 C 86 % 1025,5 hPa 0,0 l/m 0,4 km/h N 1,2 C 3,4 C 4,4 km/h
26.11.2014 02:00 3,1 C 86 % 1025,1 hPa 0,0 l/m 0,8 km/h N 1,0 C 3,1 C 7,6 km/h
26.11.2014 03:00 3,0 C 86 % 1024,7 hPa 0,0 l/m 0,8 km/h N 0,9 C 3,0 C 6,0 km/h
26.11.2014 04:00 2,9 C 87 % 1024,3 hPa 0,0 l/m 1,3 km/h N 0,9 C 2,9 C 7,6 km/h
26.11.2014 05:00 3,1 C 86 % 1023,8 hPa 0,0 l/m 1,5 km/h N 1,0 C 3,1 C 8,8 km/h
26.11.2014 06:00 3,3 C 86 % 1023,8 hPa 0,0 l/m 2,3 km/h N 1,2 C 3,3 C 10,5 km/h
26.11.2014 07:00 3,1 C 86 % 1023,8 hPa 0,0 l/m 3,7 km/h N 1,0 C 3,1 C 14,5 km/h
26.11.2014 08:00 2,7 C 86 % 1023,7 hPa 0,0 l/m 2,1 km/h N 0,6 C 2,7 C 9,7 km/h
26.11.2014 09:00 2,9 C 86 % 1023,6 hPa 0,0 l/m 1,7 km/h N 0,8 C 2,9 C 10,9 km/h
26.11.2014 10:00 3,8 C 85 % 1023,4 hPa 0,0 l/m 3,8 km/h N 1,5 C 3,8 C 16,1 km/h
26.11.2014 11:00 4,3 C 84 % 1022,8 hPa 0,0 l/m 3,4 km/h N 1,9 C 4,3 C 17,3 km/h
26.11.2014 12:00 4,3 C 84 % 1022,4 hPa 0,0 l/m 3,4 km/h N 1,9 C 4,3 C 14,9 km/h
26.11.2014 13:00 4,7 C 83 % 1021,8 hPa 0,0 l/m 3,3 km/h N 2,0 C 4,7 C 16,1 km/h
26.11.2014 14:00 4,7 C 82 % 1021,6 hPa 0,0 l/m 3,3 km/h N 1,9 C 4,7 C 14,9 km/h
26.11.2014 15:00 4,3 C 82 % 1021,4 hPa 0,0 l/m 3,0 km/h N 1,6 C 4,3 C 16,1 km/h
26.11.2014 16:00 4,1 C 83 % 1021,4 hPa 0,0 l/m 2,8 km/h N 1,5 C 4,1 C 13,7 km/h
26.11.2014 17:00 3,8 C 84 % 1021,3 hPa 0,0 l/m 2,7 km/h N 1,4 C 3,8 C 11,7 km/h
26.11.2014 18:00 3,6 C 85 % 1021,2 hPa 0,0 l/m 2,2 km/h N 1,3 C 3,6 C 14,1 km/h
26.11.2014 19:00 3,4 C 86 % 1021,1 hPa 0,0 l/m 1,5 km/h N 1,3 C 3,4 C 9,6 km/h
26.11.2014 20:00 3,3 C 86 % 1020,9 hPa 0,0 l/m 1,9 km/h N 1,2 C 3,3 C 13,3 km/h
26.11.2014 21:00 3,0 C 86 % 1020,7 hPa 0,0 l/m 2,5 km/h N 0,9 C 3,0 C 11,7 km/h
26.11.2014 22:00 2,8 C 85 % 1020,4 hPa 0,0 l/m 3,1 km/h N 0,6 C 2,8 C 14,9 km/h
26.11.2014 23:00 2,6 C 85 % 1019,9 hPa 0,0 l/m 3,3 km/h N 0,3 C 2,6 C 14,1 km/h
27.11.2014 00:00 2,4 C 86 % 1019,3 hPa 0,0 l/m 3,7 km/h N 0,3 C 2,4 C 16,9 km/h
27.11.2014 01:00 2,8 C 85 % 1018,8 hPa 0,0 l/m 3,3 km/h N 0,6 C 2,8 C 12,9 km/h
27.11.2014 02:00 2,8 C 85 % 1018,4 hPa 0,0 l/m 4,4 km/h N 0,5 C 2,8 C 21,7 km/h
27.11.2014 03:00 2,7 C 84 % 1017,9 hPa 0,0 l/m 3,6 km/h N 0,3 C 2,7 C 18,5 km/h
27.11.2014 04:00 2,6 C 84 % 1017,7 hPa 0,0 l/m 3,0 km/h N 0,1 C 2,6 C 14,1 km/h
27.11.2014 05:00 2,3 C 84 % 1017,5 hPa 0,0 l/m 4,3 km/h N -0,2 C 2,3 C 18,5 km/h
27.11.2014 06:00 2,2 C 83 % 1017,3 hPa 0,0 l/m 4,8 km/h N -0,5 C 2,2 C 18,1 km/h
27.11.2014 07:00 2,3 C 78 % 1017,5 hPa 0,0 l/m 9,0 km/h N -1,2 C -0,1 C 23,3 km/h
27.11.2014 08:00 2,0 C 78 % 1017,8 hPa 0,0 l/m 7,8 km/h N -1,5 C 0,7 C 22,5 km/h
27.11.2014 09:00 2,0 C 77 % 1017,9 hPa 0,0 l/m 7,3 km/h N -1,7 C 1,1 C 24,1 km/h
27.11.2014 10:00 2,4 C 76 % 1017,9 hPa 0,0 l/m 8,1 km/h N -1,5 C 0,7 C 23,3 km/h
27.11.2014 11:00 2,8 C 76 % 1017,5 hPa 0,0 l/m 7,5 km/h N -1,1 C 1,7 C 25,3 km/h
27.11.2014 12:00 2,9 C 75 % 1016,9 hPa 0,0 l/m 8,9 km/h N -1,2 C 0,7 C 25,8 km/h
27.11.2014 13:00 3,2 C 74 % 1016,4 hPa 0,0 l/m 7,9 km/h N -1,0 C 1,8 C 25,7 km/h
27.11.2014 14:00 3,0 C 75 % 1016,0 hPa 0,0 l/m 8,1 km/h N -1,0 C 1,5 C 25,3 km/h
27.11.2014 15:00 2,7 C 77 % 1015,9 hPa 0,0 l/m 4,9 km/h N -1,0 C 2,5 C 19,3 km/h
27.11.2014 16:00 2,4 C 78 % 1016,2 hPa 0,0 l/m 5,5 km/h N -1,1 C 2,4 C 21,3 km/h
27.11.2014 17:00 2,3 C 78 % 1016,3 hPa 0,0 l/m 5,2 km/h N -1,2 C 2,3 C 18,1 km/h
27.11.2014 18:00 2,2 C 79 % 1016,3 hPa 0,0 l/m 4,0 km/h N -1,1 C 2,2 C 19,3 km/h
27.11.2014 19:00 2,1 C 80 % 1016,4 hPa 0,0 l/m 4,7 km/h N -1,0 C 2,1 C 18,9 km/h
27.11.2014 20:00 1,9 C 82 % 1016,5 hPa 0,0 l/m 3,7 km/h N -0,9 C 1,9 C 17,7 km/h
27.11.2014 21:00 1,8 C 82 % 1016,6 hPa 0,0 l/m 4,6 km/h N -0,9 C 1,8 C 17,7 km/h
27.11.2014 22:00 1,8 C 83 % 1016,6 hPa 0,0 l/m 3,5 km/h N -0,8 C 1,8 C 16,5 km/h
27.11.2014 23:00 1,8 C 83 % 1016,7 hPa 0,0 l/m 4,4 km/h N -0,8 C 1,8 C 18,1 km/h
28.11.2014 00:00 1,8 C 84 % 1016,5 hPa 0,0 l/m 4,4 km/h N -0,6 C 1,8 C 15,3 km/h
28.11.2014 01:00 1,5 C 86 % 1016,5 hPa 0,0 l/m 3,1 km/h N -0,6 C 1,5 C 14,9 km/h
28.11.2014 02:00 1,5 C 86 % 1016,6 hPa 0,0 l/m 3,7 km/h N -0,6 C 1,5 C 17,7 km/h
28.11.2014 03:00 1,4 C 86 % 1016,6 hPa 0,0 l/m 1,8 km/h N -0,7 C 1,4 C 11,7 km/h
28.11.2014 04:00 1,5 C 86 % 1016,7 hPa 0,0 l/m 3,9 km/h N -0,6 C 1,5 C 15,7 km/h
28.11.2014 05:00 1,6 C 86 % 1016,8 hPa 0,0 l/m 2,8 km/h N -0,5 C 1,6 C 12,1 km/h
28.11.2014 06:00 1,4 C 85 % 1017,2 hPa 0,3 l/m 0,5 km/h N -0,8 C 1,4 C 6,8 km/h
28.11.2014 07:00 1,3 C 85 % 1017,4 hPa 0,3 l/m 1,1 km/h N -1,0 C 1,3 C 7,6 km/h
28.11.2014 08:00 1,3 C 84 % 1017,8 hPa 0,0 l/m 1,2 km/h N -1,1 C 1,3 C 9,3 km/h
28.11.2014 09:00 1,3 C 84 % 1018,2 hPa 0,3 l/m 1,5 km/h N -1,1 C 1,3 C 8,9 km/h
28.11.2014 10:00 1,3 C 83 % 1018,3 hPa 0,0 l/m 1,1 km/h N -1,2 C 1,3 C 10,0 km/h
28.11.2014 11:00 1,4 C 83 % 1018,2 hPa 0,0 l/m 1,8 km/h N -1,2 C 1,4 C 8,9 km/h
28.11.2014 12:00 1,5 C 83 % 1018,0 hPa 0,0 l/m 1,7 km/h N -1,0 C 1,5 C 9,7 km/h
28.11.2014 13:00 1,5 C 82 % 1017,7 hPa 0,0 l/m 1,8 km/h N -1,1 C 1,5 C 8,8 km/h
28.11.2014 14:00 1,5 C 82 % 1017,8 hPa 0,0 l/m 1,3 km/h N -1,2 C 1,5 C 8,4 km/h
28.11.2014 15:00 1,5 C 82 % 1018,1 hPa 0,0 l/m 1,1 km/h N -1,2 C 1,5 C 7,2 km/h
28.11.2014 16:00 1,5 C 82 % 1018,5 hPa 0,0 l/m 1,0 km/h N -1,2 C 1,5 C 8,4 km/h
28.11.2014 17:00 1,5 C 82 % 1018,8 hPa 0,3 l/m 1,8 km/h N -1,3 C 1,5 C 10,5 km/h
28.11.2014 18:00 1,4 C 82 % 1019,1 hPa 0,0 l/m 0,9 km/h N -1,4 C 1,4 C 7,2 km/h
28.11.2014 19:00 1,3 C 82 % 1019,2 hPa 0,0 l/m 1,4 km/h N -1,4 C 1,3 C 9,3 km/h
28.11.2014 20:00 1,3 C 82 % 1019,4 hPa 0,0 l/m 1,5 km/h N -1,4 C 1,3 C 8,4 km/h
28.11.2014 21:00 1,3 C 82 % 1019,6 hPa 0,3 l/m 1,8 km/h N -1,4 C 1,3 C 9,6 km/h
28.11.2014 22:00 1,4 C 82 % 1019,7 hPa 0,0 l/m 1,3 km/h N -1,4 C 1,4 C 9,3 km/h
28.11.2014 23:00 1,4 C 82 % 1019,7 hPa 0,0 l/m 1,1 km/h N -1,3 C 1,4 C 6,8 km/h
29.11.2014 00:00 1,4 C 82 % 1019,6 hPa 0,0 l/m 1,1 km/h N -1,4 C 1,4 C 8,0 km/h
29.11.2014 01:00 1,4 C 81 % 1019,6 hPa 0,3 l/m 0,9 km/h N -1,5 C 1,4 C 6,8 km/h
29.11.2014 02:00 1,5 C 81 % 1019,6 hPa 0,0 l/m 1,1 km/h N -1,4 C 1,5 C 7,2 km/h
29.11.2014 03:00 1,6 C 81 % 1019,5 hPa 0,0 l/m 1,0 km/h N -1,3 C 1,6 C 7,6 km/h
29.11.2014 04:00 1,6 C 81 % 1019,4 hPa 0,0 l/m 1,1 km/h N -1,3 C 1,6 C 7,2 km/h
29.11.2014 05:00 1,7 C 81 % 1019,4 hPa 0,0 l/m 0,6 km/h N -1,2 C 1,7 C 6,0 km/h
29.11.2014 06:00 1,8 C 81 % 1019,5 hPa 0,3 l/m 0,9 km/h N -1,1 C 1,8 C 6,8 km/h
29.11.2014 07:00 1,8 C 81 % 1019,8 hPa 0,0 l/m 0,6 km/h N -1,1 C 1,8 C 4,8 km/h
29.11.2014 08:00 1,9 C 81 % 1019,9 hPa 0,3 l/m 0,8 km/h N -1,0 C 1,9 C 7,2 km/h
29.11.2014 09:00 2,1 C 81 % 1020,1 hPa 0,0 l/m 0,9 km/h N -0,8 C 2,1 C 7,3 km/h
29.11.2014 10:00 2,3 C 81 % 1020,1 hPa 0,3 l/m 0,7 km/h N -0,6 C 2,3 C 7,2 km/h
29.11.2014 11:00 2,5 C 80 % 1019,8 hPa 0,0 l/m 0,7 km/h N -0,6 C 2,5 C 6,4 km/h
29.11.2014 12:00 2,5 C 80 % 1019,4 hPa 0,0 l/m 0,9 km/h N -0,6 C 2,5 C 6,4 km/h
29.11.2014 13:00 2,6 C 80 % 1019,3 hPa 0,0 l/m 0,7 km/h N -0,5 C 2,6 C 4,8 km/h
29.11.2014 14:00 2,7 C 81 % 1019,1 hPa 0,3 l/m 0,3 km/h N -0,3 C 2,7 C 4,4 km/h
29.11.2014 15:00 2,6 C 80 % 1019,3 hPa 0,0 l/m 0,1 km/h N -0,4 C 2,6 C 2,8 km/h
29.11.2014 16:00 2,6 C 80 % 1019,4 hPa 0,3 l/m 0,1 km/h N -0,5 C 2,6 C 3,6 km/h
29.11.2014 17:00 2,6 C 80 % 1019,7 hPa 0,0 l/m 0,1 km/h N -0,5 C 2,6 C 4,8 km/h
29.11.2014 18:00 2,6 C 80 % 1019,8 hPa 0,0 l/m 0,3 km/h N -0,5 C 2,6 C 4,4 km/h
29.11.2014 19:00 2,6 C 81 % 1019,9 hPa 0,3 l/m 0,1 km/h N -0,3 C 2,6 C 2,4 km/h
29.11.2014 20:00 2,7 C 80 % 1019,8 hPa 0,0 l/m 0,2 km/h N -0,4 C 2,7 C 2,8 km/h
29.11.2014 21:00 2,8 C 80 % 1019,7 hPa 0,3 l/m 0,2 km/h N -0,3 C 2,8 C 2,8 km/h
29.11.2014 22:00 2,8 C 80 % 1019,6 hPa 0,0 l/m 0,2 km/h N -0,3 C 2,8 C 3,2 km/h
29.11.2014 23:00 2,8 C 80 % 1019,4 hPa 0,3 l/m 0,3 km/h N -0,3 C 2,8 C 3,6 km/h
30.11.2014 00:00 2,8 C 80 % 1019,2 hPa 0,0 l/m 0,3 km/h N -0,3 C 2,8 C 4,4 km/h
30.11.2014 01:00 2,8 C 80 % 1018,9 hPa 0,0 l/m 0,2 km/h N -0,3 C 2,8 C 4,8 km/h
30.11.2014 02:00 2,7 C 80 % 1019,0 hPa 0,0 l/m 0,0 km/h N -0,4 C 2,7 C 1,6 km/h
30.11.2014 03:00 2,8 C 80 % 1018,8 hPa 0,3 l/m 0,1 km/h N -0,3 C 2,8 C 2,8 km/h
30.11.2014 04:00 2,9 C 80 % 1018,3 hPa 0,0 l/m 0,4 km/h N -0,2 C 2,9 C 6,0 km/h
30.11.2014 05:00 2,9 C 80 % 1018,0 hPa 0,0 l/m 1,3 km/h N -0,2 C 2,9 C 6,8 km/h
30.11.2014 06:00 2,8 C 80 % 1017,8 hPa 0,0 l/m 1,8 km/h N -0,3 C 2,8 C 8,4 km/h
30.11.2014 07:00 2,6 C 80 % 1018,2 hPa 0,0 l/m 1,2 km/h N -0,5 C 2,6 C 8,0 km/h
30.11.2014 08:00 2,5 C 80 % 1018,2 hPa 0,3 l/m 1,0 km/h N -0,6 C 2,5 C 7,2 km/h
30.11.2014 09:00 2,6 C 80 % 1018,2 hPa 0,0 l/m 1,1 km/h N -0,4 C 2,6 C 8,4 km/h
30.11.2014 10:00 2,8 C 80 % 1017,9 hPa 0,0 l/m 1,8 km/h N -0,3 C 2,8 C 9,3 km/h
30.11.2014 11:00 2,8 C 80 % 1017,3 hPa 0,0 l/m 2,0 km/h N -0,3 C 2,8 C 11,7 km/h
30.11.2014 12:00 2,9 C 80 % 1017,0 hPa 0,0 l/m 1,6 km/h N -0,2 C 2,9 C 8,9 km/h
30.11.2014 13:00 2,9 C 80 % 1016,4 hPa 0,0 l/m 1,8 km/h N -0,2 C 2,9 C 9,6 km/h
30.11.2014 14:00 2,9 C 80 % 1016,1 hPa 0,0 l/m 1,4 km/h N -0,2 C 2,9 C 7,6 km/h
30.11.2014 15:00 2,8 C 80 % 1016,0 hPa 0,0 l/m 1,2 km/h N -0,3 C 2,8 C 8,9 km/h
30.11.2014 16:00 2,6 C 80 % 1016,1 hPa 0,3 l/m 1,1 km/h N -0,5 C 2,6 C 8,0 km/h
30.11.2014 17:00 2,5 C 80 % 1016,0 hPa 0,0 l/m 1,3 km/h N -0,6 C 2,5 C 10,1 km/h
30.11.2014 18:00 2,4 C 80 % 1016,0 hPa 0,0 l/m 1,0 km/h N -0,7 C 2,4 C 8,4 km/h
30.11.2014 19:00 2,3 C 80 % 1016,0 hPa 0,0 l/m 1,6 km/h N -0,8 C 2,3 C 10,1 km/h
30.11.2014 20:00 2,2 C 80 % 1016,0 hPa 0,0 l/m 1,3 km/h N -0,9 C 2,2 C 7,6 km/h
30.11.2014 21:00 2,2 C 80 % 1015,8 hPa 0,3 l/m 1,3 km/h N -0,9 C 2,2 C 8,0 km/h
30.11.2014 22:00 2,0 C 80 % 1015,6 hPa 0,0 l/m 1,5 km/h N -1,1 C 2,0 C 9,6 km/h
30.11.2014 23:00 1,9 C 80 % 1015,3 hPa 0,0 l/m 1,6 km/h N -1,2 C 1,9 C 10,1 km/h
Min-Datum _ 28.11.14 27.11.14 30.11.14 - 24.11.14 - 27.11.14 27.11.14 24.11.14
_ Min-Zeit 06:45 13:30 23:15 - 21:30 - 09:30 07:45 21:45
Minimum _ 1,3 C 73 % 1015,2 hPa - 0,0 km/h - -1,8 C -0,9 C 0,0 km/h
Max-Datum _ 24.11.14 26.11.14 25.11.14 24.11.14 27.11.14 - 24.11.14 24.11.14 27.11.14
_ Max-Zeit 00:00 04:15 08:15 14:15 12:00 - 13:45 00:00 02:45
Maximum _ 5,2 C 87 % 1028,0 hPa 0,3 l/m 10,5 km/h
N
- 2,5 C 5,1 C 30,6 km/h
N
Durchschnitt _ 2,9 C 83 % 1021,1 hPa #5,7 l/m 1,9 km/h N 0,3 C 2,9 C 9,3 km/h